FRS96 EDDM-EDXH
Flight info
| Callsign | FRS96 |
|---|---|
| Flight time | N/A |
| Altitude | 10500 |
| Route | EDDM/26R DCT WLD DCT NUB DCT SAS DCT BMN DCT DHE DCT |
| Aircraft | TBM9/L-DGY/L |
Departure
| Time | N/A |
|---|---|
| Airport | Munich Airport (EDDM) |
Arrival
| Time | 2026-04-24 20:02 |
|---|---|
| Airport | Helgoland-Düne Airport (EDXH) |
| Time | Latitude | Longitude | Altitude | Speed | Heading |
|---|---|---|---|---|---|
| 2026-04-24 18:54 | 50.39000 | 10.68661 | 10657 ft | 245 kts | 345° |
| 2026-04-24 18:55 | 50.42292 | 10.67293 | 10658 ft | 244 kts | 345° |
| 2026-04-24 18:55 | 50.43937 | 10.66612 | 10655 ft | 245 kts | 345° |
| 2026-04-24 18:55 | 50.45576 | 10.65932 | 10654 ft | 243 kts | 345° |
| 2026-04-24 18:56 | 50.47211 | 10.65248 | 10652 ft | 243 kts | 345° |
| 2026-04-24 18:56 | 50.48838 | 10.64569 | 10653 ft | 242 kts | 345° |
| 2026-04-24 18:56 | 50.50467 | 10.63889 | 10652 ft | 242 kts | 345° |
| 2026-04-24 18:56 | 50.52089 | 10.63210 | 10648 ft | 241 kts | 345° |
| 2026-04-24 18:57 | 50.53717 | 10.62553 | 10651 ft | 242 kts | 346° |
| 2026-04-24 18:57 | 50.55339 | 10.61913 | 10653 ft | 242 kts | 346° |
| 2026-04-24 18:57 | 50.56423 | 10.61490 | 10650 ft | 242 kts | 346° |
| 2026-04-24 18:57 | 50.58056 | 10.60853 | 10647 ft | 242 kts | 346° |
| 2026-04-24 18:58 | 50.59683 | 10.60223 | 10654 ft | 242 kts | 346° |
| 2026-04-24 18:58 | 50.61322 | 10.59593 | 10650 ft | 242 kts | 346° |
| 2026-04-24 18:58 | 50.62955 | 10.58965 | 10653 ft | 241 kts | 346° |
| 2026-04-24 18:58 | 50.64582 | 10.58336 | 10651 ft | 241 kts | 346° |
| 2026-04-24 18:59 | 50.66214 | 10.57700 | 10654 ft | 241 kts | 346° |
| 2026-04-24 18:59 | 50.67841 | 10.57071 | 10654 ft | 241 kts | 346° |
| 2026-04-24 18:59 | 50.69473 | 10.56441 | 10656 ft | 241 kts | 346° |
| 2026-04-24 18:59 | 50.71100 | 10.55807 | 10655 ft | 241 kts | 346° |
| 2026-04-24 19:00 | 50.72676 | 10.55187 | 10655 ft | 240 kts | 346° |
| 2026-04-24 19:00 | 50.74299 | 10.54550 | 10658 ft | 241 kts | 346° |
| 2026-04-24 19:00 | 50.75922 | 10.53916 | 10652 ft | 241 kts | 346° |
| 2026-04-24 19:00 | 50.77550 | 10.53288 | 10653 ft | 240 kts | 346° |
| 2026-04-24 19:01 | 50.79174 | 10.52660 | 10655 ft | 240 kts | 346° |
| 2026-04-24 19:01 | 50.80795 | 10.52034 | 10647 ft | 240 kts | 346° |
| 2026-04-24 19:01 | 50.82414 | 10.51410 | 10649 ft | 240 kts | 346° |
| 2026-04-24 19:01 | 50.84037 | 10.50787 | 10653 ft | 239 kts | 346° |
| 2026-04-24 19:02 | 50.85653 | 10.50167 | 10650 ft | 239 kts | 346° |
| 2026-04-24 19:02 | 50.87273 | 10.49546 | 10647 ft | 239 kts | 346° |
| 2026-04-24 19:02 | 50.88892 | 10.48926 | 10653 ft | 239 kts | 346° |
| 2026-04-24 19:02 | 50.90507 | 10.48306 | 10658 ft | 239 kts | 346° |
| 2026-04-24 19:03 | 50.92127 | 10.47682 | 10653 ft | 239 kts | 346° |
| 2026-04-24 19:03 | 50.93743 | 10.47059 | 10653 ft | 239 kts | 346° |
| 2026-04-24 19:03 | 50.95360 | 10.46437 | 10650 ft | 239 kts | 346° |
| 2026-04-24 19:03 | 50.96976 | 10.45813 | 10655 ft | 239 kts | 346° |
| 2026-04-24 19:04 | 50.98593 | 10.45189 | 10654 ft | 239 kts | 346° |
| 2026-04-24 19:04 | 51.00208 | 10.44565 | 10651 ft | 239 kts | 346° |
| 2026-04-24 19:04 | 51.01819 | 10.43945 | 10651 ft | 239 kts | 346° |
| 2026-04-24 19:04 | 51.03435 | 10.43322 | 10654 ft | 239 kts | 346° |
| 2026-04-24 19:05 | 51.05049 | 10.42702 | 10658 ft | 239 kts | 346° |
| 2026-04-24 19:05 | 51.06661 | 10.42077 | 10659 ft | 239 kts | 346° |
| 2026-04-24 19:05 | 51.08274 | 10.41452 | 10654 ft | 239 kts | 346° |
| 2026-04-24 19:05 | 51.09888 | 10.40825 | 10655 ft | 239 kts | 346° |
| 2026-04-24 19:06 | 51.11499 | 10.40200 | 10653 ft | 239 kts | 346° |
| 2026-04-24 19:06 | 51.13113 | 10.39578 | 10653 ft | 238 kts | 346° |
| 2026-04-24 19:06 | 51.14727 | 10.38959 | 10658 ft | 238 kts | 346° |
| 2026-04-24 19:06 | 51.16336 | 10.38340 | 10654 ft | 238 kts | 346° |
| 2026-04-24 19:07 | 51.17957 | 10.37716 | 10505 ft | 243 kts | 346° |
| 2026-04-24 19:07 | 51.19620 | 10.37074 | 10292 ft | 247 kts | 346° |
| 2026-04-24 19:07 | 51.21294 | 10.36419 | 10082 ft | 249 kts | 346° |
| 2026-04-24 19:07 | 51.22982 | 10.35754 | 9858 ft | 250 kts | 346° |
| 2026-04-24 19:08 | 51.24674 | 10.35084 | 9652 ft | 249 kts | 346° |
| 2026-04-24 19:08 | 51.26331 | 10.34428 | 9644 ft | 243 kts | 346° |
| 2026-04-24 19:08 | 51.27958 | 10.33776 | 9644 ft | 239 kts | 346° |
| 2026-04-24 19:08 | 51.29562 | 10.33131 | 9646 ft | 237 kts | 346° |
| 2026-04-24 19:09 | 51.31160 | 10.32493 | 9646 ft | 237 kts | 346° |
| 2026-04-24 19:09 | 51.32758 | 10.31857 | 9643 ft | 236 kts | 346° |
| 2026-04-24 19:09 | 51.34349 | 10.31226 | 9645 ft | 236 kts | 346° |
| 2026-04-24 19:09 | 51.35944 | 10.30594 | 9643 ft | 236 kts | 346° |
| 2026-04-24 19:10 | 51.37534 | 10.29960 | 9641 ft | 235 kts | 346° |
| 2026-04-24 19:10 | 51.39120 | 10.29327 | 9640 ft | 235 kts | 346° |
| 2026-04-24 19:10 | 51.40711 | 10.28694 | 9641 ft | 235 kts | 346° |
| 2026-04-24 19:10 | 51.42303 | 10.28066 | 9645 ft | 235 kts | 346° |
| 2026-04-24 19:11 | 51.43890 | 10.27440 | 9642 ft | 235 kts | 346° |
| 2026-04-24 19:11 | 51.45478 | 10.26810 | 9644 ft | 235 kts | 346° |
| 2026-04-24 19:11 | 51.47062 | 10.26179 | 9643 ft | 235 kts | 346° |
| 2026-04-24 19:11 | 51.48649 | 10.25545 | 9641 ft | 235 kts | 346° |
| 2026-04-24 19:12 | 51.50234 | 10.24905 | 9643 ft | 235 kts | 345° |
| 2026-04-24 19:12 | 51.51817 | 10.24258 | 9642 ft | 235 kts | 346° |
| 2026-04-24 19:12 | 51.53402 | 10.23636 | 9645 ft | 234 kts | 346° |
| 2026-04-24 19:12 | 51.54982 | 10.23018 | 9641 ft | 234 kts | 346° |
| 2026-04-24 19:13 | 51.56029 | 10.22608 | 9646 ft | 234 kts | 346° |
| 2026-04-24 19:13 | 51.58141 | 10.21775 | 9648 ft | 233 kts | 346° |
| 2026-04-24 19:13 | 51.59717 | 10.21152 | 9647 ft | 233 kts | 346° |
| 2026-04-24 19:13 | 51.61295 | 10.20517 | 9647 ft | 233 kts | 344° |
| 2026-04-24 19:14 | 51.62828 | 10.19644 | 9649 ft | 233 kts | 339° |
| 2026-04-24 19:14 | 51.64330 | 10.18657 | 9645 ft | 233 kts | 338° |
| 2026-04-24 19:14 | 51.65831 | 10.17658 | 9654 ft | 234 kts | 338° |
| 2026-04-24 19:14 | 51.67329 | 10.16658 | 9650 ft | 234 kts | 338° |
| 2026-04-24 19:15 | 51.68830 | 10.15650 | 9653 ft | 233 kts | 338° |
| 2026-04-24 19:15 | 51.70331 | 10.14649 | 9654 ft | 233 kts | 338° |
| 2026-04-24 19:15 | 51.71833 | 10.13656 | 9654 ft | 233 kts | 339° |
| 2026-04-24 19:15 | 51.73352 | 10.12752 | 9652 ft | 233 kts | 341° |
| 2026-04-24 19:16 | 51.76418 | 10.11033 | 9657 ft | 233 kts | 341° |
| 2026-04-24 19:16 | 51.77951 | 10.10164 | 9653 ft | 233 kts | 341° |
| 2026-04-24 19:16 | 51.79482 | 10.09311 | 9656 ft | 233 kts | 341° |
| 2026-04-24 19:17 | 51.81016 | 10.08460 | 9653 ft | 233 kts | 341° |
| 2026-04-24 19:17 | 51.82544 | 10.07601 | 9655 ft | 233 kts | 341° |
| 2026-04-24 19:17 | 51.84056 | 10.06751 | 9658 ft | 233 kts | 341° |
| 2026-04-24 19:17 | 51.85589 | 10.05891 | 9655 ft | 233 kts | 341° |
| 2026-04-24 19:18 | 51.87119 | 10.05030 | 9654 ft | 233 kts | 341° |
| 2026-04-24 19:18 | 51.88674 | 10.04153 | 9659 ft | 233 kts | 341° |
| 2026-04-24 19:18 | 51.90192 | 10.03329 | 9656 ft | 233 kts | 342° |
| 2026-04-24 19:18 | 51.91740 | 10.02557 | 9654 ft | 233 kts | 343° |
| 2026-04-24 19:19 | 51.93272 | 10.01706 | 9659 ft | 233 kts | 338° |
| 2026-04-24 19:19 | 51.94743 | 10.00625 | 9655 ft | 232 kts | 335° |
| 2026-04-24 19:19 | 51.96208 | 9.99493 | 9654 ft | 232 kts | 335° |
| 2026-04-24 19:19 | 51.97666 | 9.98364 | 9657 ft | 232 kts | 335° |
| 2026-04-24 19:20 | 51.99123 | 9.97233 | 9658 ft | 233 kts | 335° |
| 2026-04-24 19:20 | 52.00583 | 9.96097 | 9661 ft | 233 kts | 335° |
| 2026-04-24 19:20 | 52.02039 | 9.94959 | 9658 ft | 232 kts | 335° |
| 2026-04-24 19:20 | 52.03501 | 9.93839 | 9653 ft | 232 kts | 339° |
| 2026-04-24 19:21 | 52.05076 | 9.93286 | 9649 ft | 232 kts | 352° |
| 2026-04-24 19:21 | 52.06682 | 9.93030 | 9650 ft | 232 kts | 354° |
| 2026-04-24 19:21 | 52.08289 | 9.92801 | 9653 ft | 232 kts | 354° |
| 2026-04-24 19:21 | 52.09903 | 9.92573 | 9657 ft | 232 kts | 354° |
| 2026-04-24 19:22 | 52.10966 | 9.92424 | 9653 ft | 232 kts | 354° |
| 2026-04-24 19:22 | 52.13120 | 9.92125 | 9661 ft | 232 kts | 354° |
| 2026-04-24 19:22 | 52.14733 | 9.91903 | 9659 ft | 232 kts | 354° |
| 2026-04-24 19:22 | 52.16334 | 9.91684 | 9664 ft | 232 kts | 354° |
| 2026-04-24 19:23 | 52.17934 | 9.91366 | 9667 ft | 231 kts | 350° |
| 2026-04-24 19:23 | 52.19516 | 9.90906 | 9667 ft | 231 kts | 348° |
| 2026-04-24 19:23 | 52.21099 | 9.90408 | 9675 ft | 231 kts | 347° |
| 2026-04-24 19:23 | 52.22663 | 9.89824 | 9672 ft | 231 kts | 346° |
| 2026-04-24 19:24 | 52.24229 | 9.89218 | 9673 ft | 231 kts | 346° |
| 2026-04-24 19:24 | 52.25770 | 9.88507 | 9676 ft | 230 kts | 336° |
| 2026-04-24 19:24 | 52.27088 | 9.87018 | 9680 ft | 231 kts | 322° |
| 2026-04-24 19:24 | 52.28307 | 9.85300 | 9681 ft | 232 kts | 320° |
| 2026-04-24 19:25 | 52.29460 | 9.83501 | 9681 ft | 233 kts | 318° |
| 2026-04-24 19:25 | 52.30628 | 9.81671 | 9686 ft | 233 kts | 318° |
| 2026-04-24 19:25 | 52.31808 | 9.79815 | 9689 ft | 233 kts | 318° |
| 2026-04-24 19:25 | 52.32986 | 9.77990 | 9687 ft | 233 kts | 319° |
| 2026-04-24 19:26 | 52.34201 | 9.76238 | 9688 ft | 232 kts | 321° |
| 2026-04-24 19:26 | 52.35441 | 9.74543 | 9691 ft | 233 kts | 322° |
| 2026-04-24 19:26 | 52.36681 | 9.72851 | 9693 ft | 233 kts | 322° |
| 2026-04-24 19:26 | 52.37928 | 9.71154 | 9694 ft | 233 kts | 322° |
| 2026-04-24 19:27 | 52.39175 | 9.69461 | 9691 ft | 233 kts | 322° |
| 2026-04-24 19:27 | 52.40421 | 9.67774 | 9695 ft | 233 kts | 322° |
| 2026-04-24 19:27 | 52.41672 | 9.66084 | 9692 ft | 233 kts | 322° |
| 2026-04-24 19:27 | 52.42923 | 9.64400 | 9693 ft | 233 kts | 322° |
| 2026-04-24 19:28 | 52.44177 | 9.62711 | 9693 ft | 233 kts | 322° |
| 2026-04-24 19:28 | 52.45435 | 9.61024 | 9692 ft | 234 kts | 322° |
| 2026-04-24 19:28 | 52.46678 | 9.59363 | 9694 ft | 234 kts | 322° |
| 2026-04-24 19:28 | 52.47941 | 9.57681 | 9690 ft | 234 kts | 322° |
| 2026-04-24 19:29 | 52.50476 | 9.54322 | 9664 ft | 234 kts | 322° |
| 2026-04-24 19:29 | 52.51741 | 9.52653 | 9667 ft | 234 kts | 322° |
| 2026-04-24 19:29 | 52.53013 | 9.50976 | 9667 ft | 234 kts | 322° |
| 2026-04-24 19:30 | 52.54281 | 9.49301 | 9668 ft | 234 kts | 322° |
| 2026-04-24 19:30 | 52.55542 | 9.47614 | 9665 ft | 234 kts | 321° |
| 2026-04-24 19:30 | 52.56751 | 9.45820 | 9664 ft | 234 kts | 319° |
| 2026-04-24 19:30 | 52.57945 | 9.44004 | 9661 ft | 234 kts | 319° |
| 2026-04-24 19:31 | 52.59142 | 9.42179 | 9664 ft | 234 kts | 319° |
| 2026-04-24 19:31 | 52.60340 | 9.40355 | 9663 ft | 234 kts | 319° |
| 2026-04-24 19:31 | 52.61530 | 9.38531 | 9670 ft | 234 kts | 319° |
| 2026-04-24 19:31 | 52.62732 | 9.36711 | 9665 ft | 234 kts | 319° |
| 2026-04-24 19:32 | 52.63928 | 9.34883 | 9668 ft | 235 kts | 319° |
| 2026-04-24 19:32 | 52.65122 | 9.33059 | 9666 ft | 235 kts | 319° |
| 2026-04-24 19:32 | 52.66321 | 9.31229 | 9668 ft | 235 kts | 319° |
| 2026-04-24 19:32 | 52.67516 | 9.29409 | 9670 ft | 235 kts | 319° |
| 2026-04-24 19:33 | 52.68720 | 9.27581 | 9668 ft | 235 kts | 319° |
| 2026-04-24 19:33 | 52.69921 | 9.25759 | 9665 ft | 235 kts | 319° |
| 2026-04-24 19:33 | 52.71122 | 9.23938 | 9666 ft | 235 kts | 319° |
| 2026-04-24 19:33 | 52.72322 | 9.22117 | 9669 ft | 235 kts | 319° |
| 2026-04-24 19:34 | 52.73524 | 9.20295 | 9669 ft | 234 kts | 319° |
| 2026-04-24 19:34 | 52.74725 | 9.18476 | 9669 ft | 234 kts | 319° |
| 2026-04-24 19:34 | 52.75927 | 9.16657 | 9669 ft | 234 kts | 319° |
| 2026-04-24 19:34 | 52.77128 | 9.14840 | 9672 ft | 234 kts | 319° |
| 2026-04-24 19:35 | 52.78334 | 9.13017 | 9676 ft | 234 kts | 319° |
| 2026-04-24 19:35 | 52.79538 | 9.11199 | 9673 ft | 234 kts | 319° |
| 2026-04-24 19:35 | 52.80725 | 9.09406 | 9675 ft | 235 kts | 319° |
| 2026-04-24 19:35 | 52.81933 | 9.07586 | 9678 ft | 235 kts | 319° |
| 2026-04-24 19:36 | 52.83142 | 9.05771 | 9683 ft | 235 kts | 319° |
| 2026-04-24 19:36 | 52.84361 | 9.03957 | 9684 ft | 235 kts | 320° |
| 2026-04-24 19:36 | 52.85625 | 9.02255 | 9682 ft | 235 kts | 323° |
| 2026-04-24 19:36 | 52.86928 | 9.00624 | 9679 ft | 235 kts | 323° |
| 2026-04-24 19:37 | 52.88239 | 8.98996 | 9685 ft | 235 kts | 323° |
| 2026-04-24 19:37 | 52.89543 | 8.97379 | 9685 ft | 235 kts | 323° |
| 2026-04-24 19:37 | 52.90853 | 8.95756 | 9688 ft | 235 kts | 323° |
| 2026-04-24 19:37 | 52.92158 | 8.94137 | 9686 ft | 235 kts | 323° |
| 2026-04-24 19:38 | 52.93465 | 8.92516 | 9688 ft | 235 kts | 323° |
| 2026-04-24 19:38 | 52.94779 | 8.90888 | 9685 ft | 235 kts | 323° |
| 2026-04-24 19:38 | 52.96088 | 8.89267 | 9688 ft | 235 kts | 323° |
| 2026-04-24 19:38 | 52.97397 | 8.87643 | 9685 ft | 235 kts | 323° |
| 2026-04-24 19:39 | 52.98715 | 8.86010 | 9687 ft | 235 kts | 324° |
| 2026-04-24 19:39 | 53.00027 | 8.84385 | 9687 ft | 235 kts | 323° |
| 2026-04-24 19:39 | 53.01336 | 8.82763 | 9688 ft | 235 kts | 323° |
| 2026-04-24 19:39 | 53.02652 | 8.81135 | 9690 ft | 235 kts | 323° |
| 2026-04-24 19:40 | 53.03965 | 8.79511 | 9686 ft | 235 kts | 324° |
| 2026-04-24 19:40 | 53.05315 | 8.77970 | 9684 ft | 235 kts | 328° |
| 2026-04-24 19:40 | 53.06730 | 8.76603 | 9684 ft | 235 kts | 330° |
| 2026-04-24 19:40 | 53.08159 | 8.75275 | 9684 ft | 235 kts | 330° |
| 2026-04-24 19:41 | 53.09113 | 8.74390 | 9686 ft | 235 kts | 330° |
| 2026-04-24 19:41 | 53.11010 | 8.72629 | 9689 ft | 236 kts | 330° |
| 2026-04-24 19:41 | 53.12441 | 8.71300 | 9687 ft | 236 kts | 330° |
| 2026-04-24 19:41 | 53.13873 | 8.69974 | 9688 ft | 235 kts | 330° |
| 2026-04-24 19:42 | 53.14840 | 8.69079 | 9686 ft | 235 kts | 330° |
| 2026-04-24 19:42 | 53.16275 | 8.67753 | 9686 ft | 235 kts | 330° |
| 2026-04-24 19:42 | 53.17701 | 8.66435 | 9684 ft | 235 kts | 330° |
| 2026-04-24 19:42 | 53.19115 | 8.65128 | 9686 ft | 235 kts | 330° |
| 2026-04-24 19:43 | 53.20552 | 8.63819 | 9687 ft | 235 kts | 332° |
| 2026-04-24 19:43 | 53.22043 | 8.62687 | 9688 ft | 235 kts | 336° |
| 2026-04-24 19:43 | 53.23546 | 8.61616 | 9684 ft | 235 kts | 336° |
| 2026-04-24 19:43 | 53.25050 | 8.60528 | 9689 ft | 235 kts | 335° |
| 2026-04-24 19:44 | 53.26553 | 8.59432 | 9686 ft | 235 kts | 335° |
| 2026-04-24 19:44 | 53.28054 | 8.58338 | 9686 ft | 235 kts | 335° |
| 2026-04-24 19:44 | 53.29554 | 8.57246 | 9689 ft | 235 kts | 335° |
| 2026-04-24 19:44 | 53.31051 | 8.56161 | 9693 ft | 235 kts | 335° |
| 2026-04-24 19:45 | 53.32550 | 8.55069 | 9694 ft | 235 kts | 335° |
| 2026-04-24 19:45 | 53.34044 | 8.53978 | 9694 ft | 235 kts | 335° |
| 2026-04-24 19:45 | 53.35544 | 8.52883 | 9695 ft | 235 kts | 335° |
| 2026-04-24 19:45 | 53.37039 | 8.51792 | 9696 ft | 235 kts | 335° |
| 2026-04-24 19:46 | 53.38535 | 8.50699 | 9694 ft | 235 kts | 335° |
| 2026-04-24 19:46 | 53.40025 | 8.49608 | 9696 ft | 234 kts | 335° |
| 2026-04-24 19:46 | 53.41526 | 8.48510 | 9695 ft | 234 kts | 335° |
| 2026-04-24 19:46 | 53.43019 | 8.47418 | 9699 ft | 234 kts | 335° |
| 2026-04-24 19:47 | 53.44512 | 8.46323 | 9700 ft | 234 kts | 335° |
| 2026-04-24 19:47 | 53.46006 | 8.45228 | 9692 ft | 234 kts | 335° |
| 2026-04-24 19:47 | 53.47491 | 8.44135 | 9697 ft | 234 kts | 335° |
| 2026-04-24 19:47 | 53.48896 | 8.43098 | 9695 ft | 234 kts | 335° |
| 2026-04-24 19:48 | 53.50387 | 8.42010 | 9699 ft | 234 kts | 335° |
| 2026-04-24 19:48 | 53.51877 | 8.40921 | 9696 ft | 233 kts | 335° |
| 2026-04-24 19:48 | 53.54776 | 8.38783 | 9696 ft | 233 kts | 336° |
| 2026-04-24 19:49 | 53.57678 | 8.36655 | 9697 ft | 233 kts | 334° |
| 2026-04-24 19:49 | 53.60653 | 8.34448 | 9696 ft | 233 kts | 335° |
| 2026-04-24 19:50 | 53.65120 | 8.31143 | 9140 ft | 230 kts | 335° |
| 2026-04-24 19:50 | 53.66581 | 8.30060 | 8883 ft | 228 kts | 335° |
| 2026-04-24 19:51 | 53.69452 | 8.27920 | 8377 ft | 226 kts | 335° |
| 2026-04-24 19:51 | 53.70882 | 8.26864 | 8129 ft | 225 kts | 335° |
| 2026-04-24 19:52 | 53.73750 | 8.24738 | 7628 ft | 223 kts | 335° |
| 2026-04-24 19:52 | 53.75170 | 8.23681 | 7384 ft | 223 kts | 335° |
| 2026-04-24 19:52 | 53.76605 | 8.22610 | 7135 ft | 222 kts | 335° |
| 2026-04-24 19:52 | 53.77998 | 8.21572 | 6901 ft | 222 kts | 335° |
| 2026-04-24 19:53 | 53.79408 | 8.20524 | 6663 ft | 221 kts | 335° |
| 2026-04-24 19:53 | 53.80812 | 8.19479 | 6413 ft | 220 kts | 335° |
| 2026-04-24 19:53 | 53.83597 | 8.17398 | 5899 ft | 218 kts | 335° |
| 2026-04-24 19:54 | 53.84984 | 8.16366 | 5649 ft | 217 kts | 335° |
| 2026-04-24 19:54 | 53.86363 | 8.15341 | 5398 ft | 216 kts | 335° |
| 2026-04-24 19:54 | 53.87734 | 8.14315 | 5149 ft | 215 kts | 335° |
| 2026-04-24 19:54 | 53.89094 | 8.13297 | 4901 ft | 213 kts | 335° |
| 2026-04-24 19:55 | 53.89993 | 8.12622 | 4732 ft | 213 kts | 335° |
| 2026-04-24 19:55 | 53.91794 | 8.11270 | 4390 ft | 211 kts | 335° |
| 2026-04-24 19:55 | 53.93137 | 8.10266 | 4131 ft | 210 kts | 335° |
| 2026-04-24 19:55 | 53.94472 | 8.09265 | 3880 ft | 209 kts | 335° |
| 2026-04-24 19:56 | 53.95795 | 8.08269 | 3629 ft | 208 kts | 335° |
| 2026-04-24 19:56 | 53.97120 | 8.07273 | 3379 ft | 208 kts | 336° |
| 2026-04-24 19:56 | 53.98438 | 8.06284 | 3124 ft | 207 kts | 336° |
| 2026-04-24 19:56 | 53.99717 | 8.05321 | 2864 ft | 190 kts | 336° |
| 2026-04-24 19:57 | 54.00882 | 8.04444 | 2597 ft | 178 kts | 336° |
| 2026-04-24 19:57 | 54.02011 | 8.03648 | 2330 ft | 173 kts | 340° |
| 2026-04-24 19:57 | 54.03143 | 8.03088 | 2075 ft | 171 kts | 342° |
| 2026-04-24 19:57 | 54.04285 | 8.02553 | 1805 ft | 170 kts | 342° |
| 2026-04-24 19:58 | 54.05412 | 8.01974 | 1536 ft | 169 kts | 341° |
| 2026-04-24 19:58 | 54.06538 | 8.01365 | 1276 ft | 173 kts | 340° |
| 2026-04-24 19:58 | 54.07698 | 8.00739 | 1025 ft | 175 kts | 340° |
| 2026-04-24 19:58 | 54.08829 | 8.00141 | 1004 ft | 167 kts | 340° |
| 2026-04-24 19:59 | 54.09925 | 7.99518 | 1001 ft | 165 kts | 339° |
| 2026-04-24 19:59 | 54.11007 | 7.98892 | 996 ft | 163 kts | 337° |
| 2026-04-24 19:59 | 54.12060 | 7.98221 | 996 ft | 160 kts | 339° |
| 2026-04-24 19:59 | 54.13093 | 7.97836 | 987 ft | 146 kts | 346° |
| 2026-04-24 20:00 | 54.13962 | 7.97435 | 984 ft | 115 kts | 324° |
| 2026-04-24 20:00 | 54.14514 | 7.96604 | 989 ft | 100 kts | 327° |
| 2026-04-24 20:00 | 54.15037 | 7.95893 | 990 ft | 94 kts | 320° |
| 2026-04-24 20:00 | 54.15533 | 7.95203 | 989 ft | 90 kts | 321° |
| 2026-04-24 20:01 | 54.16048 | 7.94488 | 1000 ft | 103 kts | 321° |
| 2026-04-24 20:01 | 54.16621 | 7.93696 | 983 ft | 94 kts | 321° |
| 2026-04-24 20:01 | 54.17057 | 7.93122 | 617 ft | 69 kts | 324° |
| 2026-04-24 20:01 | 54.17408 | 7.92705 | 379 ft | 56 kts | 328° |
| 2026-04-24 20:02 | 54.17617 | 7.92488 | 233 ft | 53 kts | 321° |
| 2026-04-24 20:02 | 54.18024 | 7.92023 | 127 ft | 53 kts | 320° |
| 2026-04-24 20:02 | 54.18319 | 7.91677 | 25 ft | 47 kts | 321° |
| 2026-04-24 20:02 | 54.18481 | 7.91478 | 11 ft | 8 kts | 324° |
| 2026-04-24 20:03 | 54.18552 | 7.91399 | 8 ft | 7 kts | 340° |
| 2026-04-24 20:03 | 54.18594 | 7.91394 | 7 ft | 8 kts | 41° |
| 2026-04-24 20:03 | 54.18646 | 7.91422 | 7 ft | 8 kts | 5° |
| 2026-04-24 20:03 | 54.18672 | 7.91437 | 7 ft | 1 kts | 49° |
| 2026-04-24 20:04 | 54.18672 | 7.91445 | 7 ft | 0 kts | 141° |